createdAt,value
2023-12-08T00:03:54.765Z,334.60
2023-12-08T00:09:02.781Z,309.20
2023-12-08T00:14:10.407Z,320.00
2023-12-08T00:19:17.802Z,325.70
2023-12-08T00:24:25.866Z,303.60
2023-12-08T00:29:34.040Z,292.10
2023-12-08T00:34:42.226Z,335.10
2023-12-08T00:39:49.624Z,292.80
2023-12-08T00:44:57.061Z,320.20
2023-12-08T00:50:06.656Z,292.40
2023-12-08T00:55:14.374Z,294.60
2023-12-08T01:00:22.552Z,305.10
2023-12-08T01:05:30.423Z,278.80
2023-12-08T01:10:37.743Z,282.00
2023-12-08T01:15:45.249Z,314.40
2023-12-08T01:20:53.371Z,321.70
2023-12-08T01:26:03.117Z,302.80
2023-12-08T01:31:10.525Z,286.60
2023-12-08T01:36:39.354Z,278.30
2023-12-08T01:41:45.748Z,266.80
2023-12-08T01:46:54.699Z,294.10
2023-12-08T01:52:04.265Z,284.50
2023-12-08T01:57:12.168Z,281.10
2023-12-08T02:02:19.961Z,269.60
2023-12-08T02:07:28.799Z,281.40
2023-12-08T02:12:36.782Z,283.60
2023-12-08T02:17:44.891Z,286.50
2023-12-08T02:22:52.652Z,290.90
2023-12-08T02:28:00.284Z,285.20
2023-12-08T02:33:14.678Z,250.00
2023-12-08T02:38:26.129Z,259.80
2023-12-08T02:43:33.516Z,266.60
2023-12-08T02:48:40.944Z,242.50
2023-12-08T02:53:48.447Z,256.20
2023-12-08T02:58:56.958Z,245.70
2023-12-08T03:04:04.389Z,244.30
2023-12-08T03:09:11.914Z,242.10
2023-12-08T03:14:20.818Z,256.60
2023-12-08T03:19:28.292Z,228.40
2023-12-08T03:24:35.708Z,241.90
2023-12-08T03:29:45.982Z,245.50
2023-12-08T03:34:53.372Z,249.60
2023-12-08T03:40:00.650Z,239.30
2023-12-08T03:45:09.267Z,221.80
2023-12-08T03:50:16.782Z,239.00
2023-12-08T03:55:24.093Z,232.30
2023-12-08T04:00:31.483Z,228.70
2023-12-08T04:05:39.008Z,225.20
2023-12-08T04:10:47.079Z,234.50
2023-12-08T04:15:54.481Z,233.50
2023-12-08T04:21:01.929Z,218.30
2023-12-08T04:26:11.411Z,246.40
2023-12-08T04:31:18.756Z,227.60
2023-12-08T04:36:26.058Z,211.50
2023-12-08T04:41:33.559Z,236.20
2023-12-08T04:46:41.285Z,217.30
2023-12-08T04:51:49.331Z,215.80
2023-12-08T04:56:56.833Z,205.60
2023-12-08T05:02:04.165Z,208.50
2023-12-08T05:07:11.865Z,203.20
2023-12-08T05:12:19.583Z,218.80
2023-12-08T05:17:27.143Z,202.70
2023-12-08T05:22:37.458Z,263.70
2023-12-08T05:27:45.218Z,227.00
2023-12-08T05:32:52.720Z,206.60
2023-12-08T05:38:00.239Z,206.00
2023-12-08T05:43:07.541Z,223.70
2023-12-08T05:48:15.152Z,225.60
2023-12-08T05:53:23.797Z,165.80
2023-12-08T05:58:31.125Z,220.20
2023-12-08T06:03:38.430Z,271.30
2023-12-08T06:08:45.687Z,231.00
2023-12-08T06:13:53.419Z,207.80
2023-12-08T06:19:01.091Z,211.00
2023-12-08T06:24:08.704Z,232.70
2023-12-08T06:29:16.059Z,162.50
2023-12-08T06:34:23.431Z,189.30
2023-12-08T06:39:30.776Z,191.90
2023-12-08T06:44:38.011Z,180.80
2023-12-08T06:49:45.832Z,186.00
2023-12-08T06:54:53.617Z,253.40
2023-12-08T07:00:01.798Z,229.60
2023-12-08T07:05:10.754Z,218.00
2023-12-08T07:10:18.196Z,195.50
2023-12-08T07:15:26.009Z,242.90
2023-12-08T07:20:35.618Z,217.30
2023-12-08T07:25:42.954Z,234.20
2023-12-08T07:30:50.311Z,260.00
2023-12-08T07:35:58.353Z,272.20
2023-12-08T07:41:06.041Z,257.80
2023-12-08T07:46:13.549Z,319.40
2023-12-08T07:51:21.384Z,307.70
2023-12-08T07:56:28.831Z,297.40
2023-12-08T08:01:36.683Z,311.30
2023-12-08T08:06:43.998Z,273.70
2023-12-08T08:11:51.468Z,300.00
2023-12-08T08:16:58.899Z,337.10
2023-12-08T08:22:28.807Z,327.80
2023-12-08T08:27:34.930Z,353.50
2023-12-08T08:32:42.472Z,352.90
2023-12-08T08:37:49.795Z,321.90
2023-12-08T08:42:57.374Z,361.30
2023-12-08T08:48:06.479Z,359.80
2023-12-08T08:53:13.867Z,361.50
2023-12-08T08:58:21.244Z,350.10
2023-12-08T09:03:28.679Z,329.70
2023-12-08T09:08:36.186Z,339.60
2023-12-08T09:13:43.501Z,349.80
2023-12-08T09:18:50.959Z,323.60
2023-12-08T09:23:58.498Z,374.20
2023-12-08T09:29:06.218Z,365.20
2023-12-08T09:34:13.873Z,342.20
2023-12-08T09:39:21.489Z,329.00
2023-12-08T09:44:31.574Z,360.30
2023-12-08T09:49:43.908Z,357.40
2023-12-08T09:54:51.248Z,394.40
2023-12-08T10:00:01.646Z,343.50
2023-12-08T10:05:13.267Z,339.50
2023-12-08T10:10:21.368Z,332.70
2023-12-08T10:15:29.915Z,342.70
2023-12-08T10:20:37.281Z,260.00
2023-12-08T10:25:45.308Z,237.50
2023-12-08T10:30:54.769Z,264.70
2023-12-08T10:36:02.419Z,262.70
2023-12-08T10:41:12.889Z,259.10
2023-12-08T10:46:21.901Z,267.30
2023-12-08T10:51:29.904Z,240.00
2023-12-08T10:56:37.318Z,248.60
2023-12-08T11:01:47.305Z,221.00
2023-12-08T11:07:04.018Z,239.50
2023-12-08T11:12:15.661Z,218.20
2023-12-08T11:17:32.599Z,203.70
2023-12-08T11:22:40.113Z,196.80
2023-12-08T11:27:59.584Z,202.20
2023-12-08T11:33:14.601Z,204.10
2023-12-08T11:38:30.601Z,207.50
2023-12-08T11:43:38.080Z,198.90
2023-12-08T11:48:46.377Z,166.90
2023-12-08T11:53:57.710Z,177.00
2023-12-08T11:59:08.135Z,167.60
2023-12-08T12:04:16.012Z,186.60
2023-12-08T12:09:23.975Z,166.10
2023-12-08T12:14:33.728Z,160.90
2023-12-08T12:19:41.509Z,155.60
2023-12-08T12:24:49.212Z,149.70
2023-12-08T12:29:56.745Z,160.10
2023-12-08T12:35:04.388Z,142.20
2023-12-08T12:40:14.881Z,153.90
2023-12-08T12:45:31.379Z,144.70
2023-12-08T12:50:50.855Z,154.70
2023-12-08T12:56:09.443Z,144.80
2023-12-08T13:01:17.317Z,157.00
2023-12-08T13:06:31.523Z,141.70
2023-12-08T13:11:39.124Z,144.40
2023-12-08T13:16:46.434Z,152.70
2023-12-08T13:21:53.696Z,148.80
2023-12-08T13:27:01.105Z,138.70
2023-12-08T13:32:09.156Z,145.40
2023-12-08T13:37:16.576Z,140.90
2023-12-08T13:42:24.460Z,160.90
2023-12-08T13:47:32.395Z,142.90
2023-12-08T13:52:40.307Z,148.30
2023-12-08T13:57:47.911Z,162.40
2023-12-08T14:02:55.379Z,181.80
2023-12-08T14:08:02.926Z,160.50
2023-12-08T14:13:10.236Z,164.30
2023-12-08T14:18:17.779Z,193.90
2023-12-08T14:23:25.462Z,166.30
2023-12-08T14:28:32.911Z,175.10
2023-12-08T14:33:40.413Z,193.30
2023-12-08T14:38:48.568Z,192.20
2023-12-08T14:43:55.950Z,179.60
2023-12-08T14:49:05.279Z,196.30
2023-12-08T14:54:14.113Z,193.80
2023-12-08T14:59:23.424Z,304.80
2023-12-08T15:04:31.043Z,204.60
2023-12-08T15:09:38.452Z,234.70
2023-12-08T15:14:45.723Z,254.20
2023-12-08T15:19:55.381Z,240.50
2023-12-08T15:25:03.580Z,257.50
2023-12-08T15:30:12.977Z,275.10
2023-12-08T15:35:21.320Z,298.10
2023-12-08T15:40:28.833Z,280.50
2023-12-08T15:45:36.123Z,287.90
2023-12-08T15:50:43.742Z,309.00
2023-12-08T15:55:51.288Z,281.20
2023-12-08T16:00:59.298Z,284.40
2023-12-08T16:06:14.035Z,273.30
2023-12-08T16:11:28.631Z,274.50
2023-12-08T16:16:35.968Z,225.30
2023-12-08T16:21:43.526Z,239.00
2023-12-08T16:26:50.891Z,266.30
2023-12-08T16:31:58.551Z,271.90
2023-12-08T16:37:06.686Z,268.00
2023-12-08T16:42:14.146Z,258.70
2023-12-08T16:47:22.008Z,240.70
2023-12-08T16:52:30.215Z,250.00
2023-12-08T16:57:38.555Z,248.10
2023-12-08T17:02:46.118Z,251.10
2023-12-08T17:07:53.464Z,290.00
2023-12-08T17:13:00.798Z,266.70
2023-12-08T17:18:08.493Z,260.50
2023-12-08T17:23:16.391Z,261.30
2023-12-08T17:28:23.737Z,253.40
2023-12-08T17:33:31.257Z,245.00
2023-12-08T17:38:38.664Z,230.70
2023-12-08T17:43:46.040Z,298.00
2023-12-08T17:48:53.910Z,264.20
2023-12-08T17:54:01.321Z,223.30
2023-12-08T17:59:08.608Z,200.20
2023-12-08T18:04:15.922Z,213.60
2023-12-08T18:09:23.430Z,209.70
2023-12-08T18:14:30.857Z,205.10
2023-12-08T18:19:38.328Z,203.20
2023-12-08T18:24:45.708Z,184.70
2023-12-08T18:29:54.739Z,184.10
2023-12-08T18:35:02.192Z,181.80
2023-12-08T18:40:12.410Z,188.40
2023-12-08T18:45:20.120Z,193.80
2023-12-08T18:50:27.706Z,182.40
2023-12-08T18:55:35.062Z,182.80
2023-12-08T19:00:42.374Z,168.60
2023-12-08T19:05:52.430Z,157.70
2023-12-08T19:10:59.841Z,181.50
2023-12-08T19:16:07.663Z,319.90
2023-12-08T19:21:15.720Z,203.00
2023-12-08T19:26:23.112Z,180.50
2023-12-08T19:31:30.601Z,222.10
2023-12-08T19:36:38.141Z,200.60
2023-12-08T19:41:45.544Z,179.20
2023-12-08T19:46:54.867Z,182.30
2023-12-08T19:52:02.286Z,198.00
2023-12-08T19:57:11.546Z,199.60
2023-12-08T20:02:19.088Z,193.60
2023-12-08T20:07:26.688Z,191.90
2023-12-08T20:12:34.463Z,199.90
2023-12-08T20:17:41.801Z,191.00
2023-12-08T20:22:49.269Z,180.90
2023-12-08T20:27:56.762Z,193.80
2023-12-08T20:33:04.813Z,216.40
2023-12-08T20:38:12.352Z,206.60
2023-12-08T20:43:23.894Z,204.80
2023-12-08T20:48:31.398Z,140.10
2023-12-08T20:53:38.779Z,242.60
2023-12-08T20:58:46.373Z,200.20
2023-12-08T21:03:54.121Z,205.40
2023-12-08T21:09:02.368Z,179.00
2023-12-08T21:14:09.737Z,170.90
2023-12-08T21:19:18.044Z,176.00
2023-12-08T21:24:27.212Z,172.80
2023-12-08T21:29:34.656Z,188.10
2023-12-08T21:34:42.142Z,184.60
2023-12-08T21:39:49.451Z,177.20
2023-12-08T21:44:56.847Z,181.60
2023-12-08T21:50:05.214Z,208.90
2023-12-08T21:55:12.906Z,177.30
2023-12-08T22:00:21.263Z,186.80
2023-12-08T22:05:29.689Z,185.70
2023-12-08T22:10:37.046Z,179.40
2023-12-08T22:15:44.481Z,178.30
2023-12-08T22:20:51.869Z,155.20
2023-12-08T22:25:59.265Z,157.60
2023-12-08T22:31:08.057Z,157.50
2023-12-08T22:36:15.708Z,144.20
2023-12-08T22:41:23.117Z,142.70
2023-12-08T22:46:30.439Z,138.90
2023-12-08T22:51:48.573Z,137.70
2023-12-08T22:57:05.313Z,145.40
2023-12-08T23:02:12.675Z,148.30
2023-12-08T23:07:20.001Z,146.80
2023-12-08T23:12:27.439Z,158.10
2023-12-08T23:17:37.818Z,151.50
2023-12-08T23:22:45.147Z,142.50
2023-12-08T23:27:52.665Z,154.70
2023-12-08T23:33:02.603Z,223.00
2023-12-08T23:38:10.137Z,131.30
2023-12-08T23:43:17.737Z,136.40
2023-12-08T23:48:25.146Z,151.60
2023-12-08T23:53:32.622Z,152.90
2023-12-08T23:58:39.940Z,135.90
